Time;durP1;ratioP1;P1;durP2;ratioP2;P2;SDS_P1;SDS_P2;PMS_P1;PMS_P2;Temp;Humidity;BMP_temperature;BMP_pressure;BME280_temperature;BME280_humidity;BME280_pressure;Samples;Min_cycle;Max_cycle;Signal;HPM_P1;HPM_P2
2021/12/08 00:00:42;;;;;;;11.77;3.28;;;3.70;96.90;;;;;;5150222;27;37372;-57
2021/12/08 00:03:11;;;;;;;9.10;2.95;;;3.70;96.90;;;;;;5150793;27;39072;-57
2021/12/08 00:05:39;;;;;;;10.50;2.97;;;3.60;97.00;;;;;;5151355;27;37656;-58
2021/12/08 00:08:08;;;;;;;11.25;2.85;;;3.70;97.30;;;;;;5151284;27;38283;-57
2021/12/08 00:13:01;;;;;;;13.23;2.90;;;3.60;97.30;;;;;;5148886;27;37186;-58
2021/12/08 00:13:40;;;;;;;9.50;3.42;;;3.60;97.50;;;;;;5149249;27;38263;-58
2021/12/08 00:16:12;;;;;;;13.73;2.80;;;3.60;97.60;;;;;;5150343;27;38623;-55
2021/12/08 00:18:45;;;;;;;11.80;3.28;;;3.60;97.90;;;;;;5150632;27;38105;-54
2021/12/08 00:21:13;;;;;;;11.95;4.22;;;3.60;97.70;;;;;;5151280;27;35159;-55
2021/12/08 00:23:41;;;;;;;13.02;3.70;;;3.60;97.90;;;;;;5147783;27;36252;-55
2021/12/08 00:26:09;;;;;;;10.60;3.22;;;3.70;98.20;;;;;;5148335;27;38343;-54
2021/12/08 00:28:36;;;;;;;13.90;3.92;;;3.70;98.10;;;;;;5148512;27;38550;-56
2021/12/08 00:31:06;;;;;;;11.57;3.53;;;3.70;98.10;;;;;;5148452;27;35399;-55
2021/12/08 00:33:36;;;;;;;11.65;4.15;;;3.70;98.50;;;;;;5147841;27;37669;-54
2021/12/08 00:36:06;;;;;;;13.93;3.53;;;3.70;98.20;;;;;;5147695;27;37348;-55
2021/12/08 00:38:34;;;;;;;10.90;3.38;;;3.70;98.10;;;;;;5147860;27;37490;-56
2021/12/08 00:41:01;;;;;;;10.27;3.63;;;3.70;98.30;;;;;;5148264;27;36529;-55
2021/12/08 00:43:29;;;;;;;8.98;3.78;;;3.70;98.20;;;;;;5147943;27;36206;-55
2021/12/08 00:45:56;;;;;;;9.52;3.50;;;3.70;98.20;;;;;;5147789;27;38451;-56
2021/12/08 00:48:24;;;;;;;14.88;3.97;;;3.70;98.40;;;;;;5149905;27;36733;-56
2021/12/08 00:50:53;;;;;;;13.30;3.63;;;3.70;98.40;;;;;;5147435;27;35698;-56
2021/12/08 00:53:20;;;;;;;10.63;4.53;;;3.80;98.50;;;;;;5148446;27;37339;-55
2021/12/08 00:55:48;;;;;;;12.38;3.83;;;3.80;98.60;;;;;;5147798;27;38485;-56
2021/12/08 00:58:15;;;;;;;8.57;3.38;;;3.80;98.60;;;;;;5147796;27;38160;-56
2021/12/08 01:00:47;;;;;;;12.35;3.47;;;3.80;98.70;;;;;;5148502;27;36593;-56
2021/12/08 01:03:16;;;;;;;11.85;3.63;;;3.80;98.70;;;;;;5148249;27;38862;-56
2021/12/08 01:05:47;;;;;;;14.02;3.83;;;3.80;98.60;;;;;;5147523;27;38498;-54
2021/12/08 01:08:16;;;;;;;11.77;4.32;;;3.90;98.60;;;;;;5147646;27;38206;-56
2021/12/08 01:10:46;;;;;;;7.32;2.95;;;3.90;98.60;;;;;;5148538;27;36532;-56
2021/12/08 01:13:15;;;;;;;9.88;3.42;;;3.90;98.80;;;;;;5147186;27;36328;-55
2021/12/08 01:15:46;;;;;;;8.88;3.40;;;3.90;98.70;;;;;;5147978;27;37689;-55
2021/12/08 01:18:14;;;;;;;7.63;3.70;;;3.90;98.70;;;;;;5147797;27;36049;-54
2021/12/08 01:20:43;;;;;;;12.27;4.25;;;3.90;98.60;;;;;;5146812;27;36739;-54
2021/12/08 01:23:10;;;;;;;11.90;4.00;;;3.90;98.70;;;;;;5148253;27;37843;-54
2021/12/08 01:25:39;;;;;;;11.50;3.70;;;4.00;98.70;;;;;;5147081;27;38394;-54
2021/12/08 01:28:07;;;;;;;11.68;3.97;;;4.00;98.70;;;;;;5146946;27;38298;-53
2021/12/08 01:30:34;;;;;;;12.52;4.10;;;4.00;98.70;;;;;;5148098;27;36155;-55
2021/12/08 01:33:02;;;;;;;11.18;3.50;;;4.00;98.60;;;;;;5148979;27;36287;-55
2021/12/08 01:35:29;;;;;;;10.02;3.30;;;4.00;98.70;;;;;;5147717;27;39674;-55
2021/12/08 01:37:57;;;;;;;9.75;3.35;;;4.10;98.60;;;;;;5148856;27;38022;-55
2021/12/08 01:40:24;;;;;;;8.80;3.75;;;4.10;98.70;;;;;;5148821;27;35328;-55
2021/12/08 01:42:56;;;;;;;9.60;3.58;;;4.10;98.70;;;;;;5147907;27;37493;-55
2021/12/08 01:48:14;;;;;;;10.73;3.63;;;4.10;98.80;;;;;;5147434;27;38587;-54
2021/12/08 01:50:43;;;;;;;9.45;3.42;;;4.10;98.90;;;;;;5147776;27;37088;-54
2021/12/08 01:53:11;;;;;;;9.15;3.38;;;4.10;99.00;;;;;;5148182;27;37387;-54
2021/12/08 01:55:40;;;;;;;12.90;4.70;;;4.10;99.10;;;;;;5148027;27;37795;-54
2021/12/08 01:58:10;;;;;;;7.80;3.90;;;4.10;98.90;;;;;;5146572;27;38938;-54
2021/12/08 02:00:40;;;;;;;12.00;4.07;;;4.10;98.90;;;;;;5147016;27;37004;-55
2021/12/08 02:03:09;;;;;;;10.57;4.05;;;4.20;99.00;;;;;;5147939;27;36372;-54
2021/12/08 02:05:37;;;;;;;10.40;4.38;;;4.20;99.20;;;;;;5147707;27;37558;-54
2021/12/08 02:08:06;;;;;;;8.85;4.15;;;4.20;99.00;;;;;;5148002;27;37216;-53
2021/12/08 02:10:34;;;;;;;13.30;4.95;;;4.20;99.10;;;;;;5148234;27;35340;-54
2021/12/08 02:13:01;;;;;;;9.43;4.10;;;4.20;99.10;;;;;;5147824;27;39588;-54
2021/12/08 02:15:30;;;;;;;9.18;4.05;;;4.20;99.10;;;;;;5147264;27;38392;-53
2021/12/08 02:17:58;;;;;;;9.25;4.15;;;4.20;99.20;;;;;;5147039;27;36853;-54
2021/12/08 02:20:28;;;;;;;20.40;4.95;;;4.20;99.10;;;;;;5147341;27;38141;-52
2021/12/08 02:22:57;;;;;;;9.13;3.85;;;4.20;99.10;;;;;;5147718;27;37184;-54
2021/12/08 02:25:26;;;;;;;9.35;4.28;;;4.20;99.10;;;;;;5147329;27;38273;-55
2021/12/08 02:27:55;;;;;;;10.82;4.57;;;4.20;99.20;;;;;;5147737;27;37585;-54
2021/12/08 02:30:29;;;;;;;10.63;4.43;;;4.20;99.10;;;;;;5147649;27;36565;-53
2021/12/08 02:47:08;;;;;;;8.63;3.75;;;4.30;99.20;;;;;;5150577;27;39438;-53
2021/12/08 02:49:38;;;;;;;9.38;3.75;;;4.30;99.10;;;;;;5151116;27;35211;-54
2021/12/08 02:52:08;;;;;;;13.60;4.65;;;4.30;99.10;;;;;;5150874;27;37086;-53
2021/12/08 02:54:41;;;;;;;9.68;4.40;;;4.30;99.10;;;;;;5150708;27;37264;-53
2021/12/08 02:57:10;;;;;;;9.45;3.78;;;4.30;99.00;;;;;;5150290;27;37632;-52
2021/12/08 02:59:38;;;;;;;12.85;5.78;;;4.30;99.10;;;;;;5149081;27;37047;-54
2021/12/08 03:02:06;;;;;;;12.48;4.55;;;4.30;99.20;;;;;;5149930;27;37786;-53
2021/12/08 03:04:34;;;;;;;9.55;4.30;;;4.30;99.10;;;;;;5150921;27;38353;-53
2021/12/08 03:07:01;;;;;;;8.25;4.60;;;4.30;99.10;;;;;;5150591;27;37567;-54
2021/12/08 03:09:29;;;;;;;15.20;4.35;;;4.40;99.20;;;;;;5151241;27;37362;-53
2021/12/08 03:12:00;;;;;;;11.38;5.95;;;4.40;99.20;;;;;;5150260;27;37102;-53
2021/12/08 03:14:29;;;;;;;9.02;4.25;;;4.40;99.20;;;;;;5151295;27;38307;-53
2021/12/08 03:16:59;;;;;;;8.45;4.68;;;4.40;99.10;;;;;;5149851;27;37865;-55
2021/12/08 03:19:27;;;;;;;10.27;4.93;;;4.40;99.20;;;;;;5149404;27;36269;-55
2021/12/08 03:21:55;;;;;;;12.52;5.32;;;4.40;99.20;;;;;;5150044;27;37318;-55
2021/12/08 03:24:27;;;;;;;13.63;5.35;;;4.50;99.30;;;;;;5149462;27;38884;-55
2021/12/08 03:27:07;;;;;;;11.32;5.75;;;4.40;99.20;;;;;;5149497;27;36397;-54
2021/12/08 03:29:43;;;;;;;14.18;6.15;;;4.40;99.20;;;;;;5149685;27;38028;-55
2021/12/08 03:32:15;;;;;;;11.45;5.30;;;4.50;99.50;;;;;;5150535;27;36589;-55
2021/12/08 03:34:51;;;;;;;10.93;6.07;;;4.50;99.40;;;;;;5150035;27;37501;-55
2021/12/08 03:37:21;;;;;;;11.02;6.13;;;4.50;99.50;;;;;;5150439;27;38762;-54
2021/12/08 03:39:50;;;;;;;15.85;7.47;;;4.50;99.60;;;;;;5148639;27;37499;-55
2021/12/08 03:42:20;;;;;;;10.70;6.80;;;4.50;99.60;;;;;;5149248;27;36732;-55
2021/12/08 03:44:48;;;;;;;14.93;6.13;;;4.50;99.60;;;;;;5149604;27;37399;-54
2021/12/08 03:47:18;;;;;;;12.85;6.55;;;4.50;99.60;;;;;;5148688;27;36774;-54
2021/12/08 03:49:49;;;;;;;22.13;7.95;;;4.50;99.60;;;;;;5149190;27;37535;-55
2021/12/08 03:52:16;;;;;;;11.00;6.70;;;4.60;99.60;;;;;;5149583;27;35403;-54
2021/12/08 03:54:43;;;;;;;11.20;7.28;;;4.60;99.70;;;;;;5148991;27;38768;-55
2021/12/08 03:57:12;;;;;;;13.25;7.53;;;4.60;99.70;;;;;;5147731;27;37744;-55
2021/12/08 03:59:41;;;;;;;12.45;7.25;;;4.60;99.60;;;;;;5149240;27;38130;-55
2021/12/08 04:02:08;;;;;;;14.40;7.38;;;4.70;99.60;;;;;;5149391;27;37203;-55
2021/12/08 04:04:43;;;;;;;13.25;7.70;;;4.60;99.60;;;;;;5148007;27;38513;-55
2021/12/08 04:07:12;;;;;;;13.13;7.85;;;4.60;99.50;;;;;;5148140;27;37695;-53
2021/12/08 04:09:42;;;;;;;12.50;7.57;;;4.70;99.60;;;;;;5146165;27;37484;-53
2021/12/08 04:12:10;;;;;;;13.10;8.20;;;4.70;99.70;;;;;;5148743;27;36765;-53
2021/12/08 04:14:42;;;;;;;14.93;8.10;;;4.70;99.70;;;;;;5148763;27;37801;-54
2021/12/08 04:17:14;;;;;;;13.50;8.50;;;4.70;99.60;;;;;;5149361;27;37767;-53
2021/12/08 04:19:43;;;;;;;14.25;8.35;;;4.80;99.70;;;;;;5149472;27;36253;-53
2021/12/08 04:22:16;;;;;;;13.45;8.00;;;4.80;99.60;;;;;;5149522;27;36441;-53
2021/12/08 04:24:46;;;;;;;13.77;7.97;;;4.80;99.60;;;;;;5149124;27;37696;-53
2021/12/08 04:27:17;;;;;;;17.70;8.95;;;4.80;99.70;;;;;;5149223;27;37522;-53
2021/12/08 04:29:48;;;;;;;16.15;8.73;;;4.90;99.70;;;;;;5148543;27;36231;-53
2021/12/08 04:32:17;;;;;;;19.30;7.88;;;4.90;99.70;;;;;;5149401;27;37203;-53
2021/12/08 04:34:47;;;;;;;16.50;8.27;;;4.90;99.60;;;;;;5149005;27;36269;-54
2021/12/08 04:37:18;;;;;;;11.85;8.10;;;5.00;99.70;;;;;;5148427;27;37848;-50
2021/12/08 04:39:55;;;;;;;13.82;8.40;;;5.00;99.60;;;;;;5149069;27;37417;-52
2021/12/08 04:42:35;;;;;;;13.98;7.97;;;5.00;99.60;;;;;;5148626;27;37329;-53
2021/12/08 04:45:11;;;;;;;14.55;9.10;;;5.00;99.60;;;;;;5148901;27;38041;-53
2021/12/08 04:47:52;;;;;;;14.68;8.82;;;5.00;99.60;;;;;;5148526;27;37663;-52
2021/12/08 04:53:13;;;;;;;13.25;8.25;;;5.00;99.60;;;;;;5148725;27;37780;-53
2021/12/08 05:01:24;;;;;;;13.25;8.88;;;5.10;99.60;;;;;;5149156;27;39382;-52
2021/12/08 05:04:13;;;;;;;16.20;9.82;;;5.10;99.60;;;;;;5148540;27;36399;-52
2021/12/08 05:06:48;;;;;;;12.90;9.35;;;5.10;99.70;;;;;;5148900;27;37525;-53
2021/12/08 05:09:20;;;;;;;17.23;10.38;;;5.20;99.60;;;;;;5147754;27;37882;-53
2021/12/08 05:11:51;;;;;;;14.32;8.95;;;5.20;99.60;;;;;;5149002;27;37333;-53
2021/12/08 05:14:22;;;;;;;12.55;8.70;;;5.20;99.60;;;;;;5148507;27;37954;-53
2021/12/08 05:16:55;;;;;;;20.40;9.93;;;5.20;99.60;;;;;;5147734;27;38362;-53
2021/12/08 05:19:25;;;;;;;13.68;9.35;;;5.30;99.60;;;;;;5148901;27;37441;-53
2021/12/08 05:21:55;;;;;;;14.27;8.88;;;5.20;99.70;;;;;;5149102;27;37392;-53
2021/12/08 05:24:27;;;;;;;15.07;9.57;;;5.30;99.70;;;;;;5148742;27;37106;-54
2021/12/08 05:26:59;;;;;;;16.70;9.65;;;5.30;99.80;;;;;;5148952;27;37417;-54
2021/12/08 05:29:30;;;;;;;18.30;10.20;;;5.30;99.70;;;;;;5148624;27;37638;-53
2021/12/08 05:32:02;;;;;;;15.98;9.55;;;5.40;99.80;;;;;;5147625;27;36154;-53
2021/12/08 05:34:29;;;;;;;17.25;9.20;;;5.40;99.70;;;;;;5148025;27;35638;-54
2021/12/08 05:36:57;;;;;;;16.50;9.15;;;5.40;99.80;;;;;;5147019;27;37698;-54
2021/12/08 05:39:27;;;;;;;14.93;9.18;;;5.40;99.70;;;;;;5146005;27;37639;-53
2021/12/08 05:41:58;;;;;;;14.73;9.32;;;5.50;99.70;;;;;;5146126;27;36067;-54
2021/12/08 05:44:27;;;;;;;19.00;10.27;;;5.50;99.70;;;;;;5147571;27;36410;-54
2021/12/08 05:47:00;;;;;;;14.85;8.50;;;5.50;99.70;;;;;;5149203;27;39296;-54
2021/12/08 05:49:27;;;;;;;19.92;9.85;;;5.50;99.70;;;;;;5150260;27;37908;-52
2021/12/08 05:51:56;;;;;;;16.48;8.68;;;5.50;99.70;;;;;;5150674;27;37399;-53
2021/12/08 05:54:29;;;;;;;14.23;8.55;;;5.60;99.90;;;;;;5149015;27;37167;-53
2021/12/08 05:56:57;;;;;;;13.02;8.45;;;5.60;99.80;;;;;;5148131;27;37697;-54
2021/12/08 05:59:25;;;;;;;15.23;8.43;;;5.60;99.80;;;;;;5148367;27;39606;-54
2021/12/08 06:01:56;;;;;;;14.20;8.82;;;5.60;99.80;;;;;;5147800;27;38342;-53
2021/12/08 06:04:27;;;;;;;14.20;7.60;;;5.70;99.80;;;;;;5149181;27;36370;-53
2021/12/08 06:06:55;;;;;;;14.13;7.90;;;5.70;99.70;;;;;;5148717;27;37132;-54
2021/12/08 06:09:24;;;;;;;13.77;8.23;;;5.70;99.70;;;;;;5148707;27;37395;-54
2021/12/08 06:11:53;;;;;;;10.88;7.13;;;5.80;99.70;;;;;;5148142;27;38302;-53
2021/12/08 06:14:24;;;;;;;18.00;8.57;;;5.80;99.70;;;;;;5147481;27;35261;-54
2021/12/08 06:16:52;;;;;;;12.68;8.27;;;5.80;99.70;;;;;;5149606;27;37286;-54
2021/12/08 06:19:20;;;;;;;15.02;8.23;;;5.80;99.60;;;;;;5148557;27;37858;-54
2021/12/08 06:21:50;;;;;;;12.82;8.52;;;5.80;99.60;;;;;;5153006;27;37419;-54
2021/12/08 06:24:20;;;;;;;14.25;7.90;;;5.80;99.60;;;;;;5150146;27;37540;-54
2021/12/08 06:26:48;;;;;;;15.25;7.22;;;5.80;99.70;;;;;;5153004;27;37557;-54
2021/12/08 06:29:17;;;;;;;13.73;7.68;;;5.80;99.70;;;;;;5152175;27;37916;-54
2021/12/08 06:31:45;;;;;;;17.70;8.80;;;5.80;99.70;;;;;;5152720;27;37304;-54
2021/12/08 06:34:13;;;;;;;17.45;7.45;;;5.80;99.70;;;;;;5151524;27;37461;-54
2021/12/08 06:36:45;;;;;;;15.43;7.75;;;5.80;99.70;;;;;;5151822;27;39914;-54
2021/12/08 06:39:17;;;;;;;12.63;7.00;;;5.80;99.60;;;;;;5152440;27;39066;-54
2021/12/08 06:41:49;;;;;;;15.00;7.50;;;5.80;99.70;;;;;;5153248;27;37669;-54
2021/12/08 06:44:18;;;;;;;14.48;7.03;;;5.70;99.60;;;;;;5152363;27;36570;-54
2021/12/08 06:46:47;;;;;;;15.35;6.90;;;5.70;99.70;;;;;;5152856;27;36241;-54
2021/12/08 06:49:19;;;;;;;12.43;6.90;;;5.70;99.70;;;;;;5151731;27;36486;-53
2021/12/08 06:51:51;;;;;;;9.98;6.20;;;5.70;99.90;;;;;;5151841;27;36794;-53
2021/12/08 06:54:24;;;;;;;14.18;6.30;;;5.70;99.70;;;;;;5151802;27;37367;-54
2021/12/08 06:56:56;;;;;;;12.40;6.03;;;5.70;99.70;;;;;;5153025;27;36224;-54
2021/12/08 06:59:34;;;;;;;13.98;6.72;;;5.60;99.70;;;;;;5152516;27;38190;-53
2021/12/08 07:02:09;;;;;;;11.70;6.80;;;5.60;99.70;;;;;;5152499;27;38242;-53
2021/12/08 07:04:53;;;;;;;15.93;6.60;;;5.60;99.70;;;;;;5151780;27;37552;-54
2021/12/08 07:07:25;;;;;;;10.10;6.50;;;5.60;99.70;;;;;;5153031;27;38549;-53
2021/12/08 07:09:57;;;;;;;12.45;6.47;;;5.50;99.60;;;;;;5152076;27;38131;-53
2021/12/08 07:12:29;;;;;;;15.23;7.18;;;5.50;99.70;;;;;;5153050;27;37164;-54
2021/12/08 07:15:01;;;;;;;12.40;6.10;;;5.50;99.70;;;;;;5152048;27;36397;-54
2021/12/08 07:17:32;;;;;;;9.45;5.78;;;5.60;99.70;;;;;;5151832;27;37424;-54
2021/12/08 07:20:14;;;;;;;13.63;6.82;;;5.50;99.70;;;;;;5151162;27;38384;-54
2021/12/08 07:22:45;;;;;;;14.40;6.05;;;5.50;99.60;;;;;;5152464;27;39156;-54
2021/12/08 07:25:16;;;;;;;15.82;5.93;;;5.50;99.70;;;;;;5152914;27;36901;-54
2021/12/08 07:27:44;;;;;;;11.27;5.88;;;5.50;99.70;;;;;;5152738;27;37503;-54
2021/12/08 07:30:16;;;;;;;11.95;5.82;;;5.50;99.70;;;;;;5153071;27;36664;-49
2021/12/08 07:32:43;;;;;;;16.27;5.70;;;5.50;99.60;;;;;;5151590;27;38118;-54
2021/12/08 07:35:14;;;;;;;12.27;6.15;;;5.40;99.60;;;;;;5153727;27;37153;-54
2021/12/08 07:37:41;;;;;;;10.35;5.90;;;5.40;99.60;;;;;;5151333;27;37530;-54
2021/12/08 07:40:15;;;;;;;14.75;5.68;;;5.40;99.60;;;;;;5150239;27;37795;-54
2021/12/08 07:42:48;;;;;;;9.85;4.95;;;5.40;99.70;;;;;;5154312;27;37469;-54
2021/12/08 07:45:19;;;;;;;12.57;6.60;;;5.40;99.70;;;;;;5151966;27;36479;-54
2021/12/08 07:47:49;;;;;;;12.60;5.45;;;5.30;99.60;;;;;;5152912;27;36417;-54
2021/12/08 07:50:21;;;;;;;16.23;5.72;;;5.30;99.60;;;;;;5153061;27;40846;-54
2021/12/08 07:52:51;;;;;;;12.70;4.65;;;5.30;99.60;;;;;;5154125;27;38446;-55
2021/12/08 07:55:22;;;;;;;9.75;4.68;;;5.30;99.60;;;;;;5153224;27;37000;-55
2021/12/08 07:57:51;;;;;;;11.15;3.92;;;5.30;99.60;;;;;;5150717;27;37511;-55
2021/12/08 08:00:23;;;;;;;13.20;4.20;;;5.20;99.60;;;;;;5139643;27;38648;-55
2021/12/08 08:02:53;;;;;;;12.93;4.53;;;5.30;99.60;;;;;;5140379;27;37261;-56
2021/12/08 08:05:27;;;;;;;9.25;3.92;;;5.30;99.50;;;;;;5136742;27;35486;-55
2021/12/08 08:07:56;;;;;;;10.35;3.58;;;5.30;99.50;;;;;;5139890;27;37160;-55
2021/12/08 08:10:24;;;;;;;9.95;3.45;;;5.30;99.40;;;;;;5139433;27;36719;-55
2021/12/08 08:12:57;;;;;;;9.50;3.28;;;5.30;99.30;;;;;;5136949;27;37996;-55
2021/12/08 08:15:26;;;;;;;10.10;2.35;;;5.30;99.20;;;;;;5138476;27;36285;-55
2021/12/08 08:17:55;;;;;;;12.57;2.90;;;5.40;99.20;;;;;;5139356;27;38987;-55
2021/12/08 08:20:26;;;;;;;12.90;4.28;;;5.40;99.20;;;;;;5141339;27;38162;-55
2021/12/08 08:22:54;;;;;;;6.95;3.55;;;5.30;99.00;;;;;;5140096;27;38206;-55
2021/12/08 08:25:26;;;;;;;9.90;3.08;;;5.40;99.00;;;;;;5141708;27;37474;-55
2021/12/08 08:27:55;;;;;;;8.30;3.45;;;5.40;98.90;;;;;;5141524;27;37184;-55
2021/12/08 08:30:26;;;;;;;9.63;2.30;;;5.50;99.00;;;;;;5141655;27;37635;-55
2021/12/08 08:32:55;;;;;;;12.45;2.53;;;5.60;98.80;;;;;;5139742;27;37710;-55
2021/12/08 08:35:29;;;;;;;8.60;2.65;;;5.60;98.70;;;;;;5134070;27;37430;-55
2021/12/08 08:37:57;;;;;;;7.45;2.85;;;5.60;98.60;;;;;;5138458;27;37419;-55
2021/12/08 08:40:31;;;;;;;9.30;2.90;;;5.60;98.50;;;;;;5137839;27;37901;-55
2021/12/08 08:43:01;;;;;;;10.57;3.55;;;5.60;98.60;;;;;;5138914;27;38614;-55
2021/12/08 08:45:32;;;;;;;10.77;2.97;;;5.60;98.40;;;;;;5137328;27;36492;-55
2021/12/08 08:48:02;;;;;;;10.52;3.10;;;5.10;98.30;;;;;;5139726;27;38593;-55
2021/12/08 08:50:34;;;;;;;9.65;2.75;;;5.60;98.50;;;;;;5139009;27;36587;-55
2021/12/08 08:53:04;;;;;;;7.97;2.55;;;5.60;98.30;;;;;;5141213;27;36026;-55
2021/12/08 08:55:35;;;;;;;12.13;2.70;;;5.60;98.30;;;;;;5141217;27;36904;-55
2021/12/08 08:58:07;;;;;;;10.15;2.67;;;5.70;98.10;;;;;;5140320;27;37494;-56
2021/12/08 09:00:38;;;;;;;6.63;2.45;;;5.80;98.10;;;;;;5139967;27;39378;-56
2021/12/08 09:03:08;;;;;;;8.73;2.30;;;6.00;98.00;;;;;;5139961;27;38630;-56
2021/12/08 09:05:40;;;;;;;9.73;2.13;;;6.20;97.30;;;;;;5140581;27;35208;-56
2021/12/08 09:08:11;;;;;;;8.68;2.60;;;6.30;97.00;;;;;;5140846;27;37509;-56
2021/12/08 09:10:43;;;;;;;7.00;2.15;;;6.30;96.60;;;;;;5140735;27;37915;-56
2021/12/08 09:13:15;;;;;;;6.13;1.95;;;6.20;96.80;;;;;;5140721;27;36259;-56
2021/12/08 09:15:47;;;;;;;8.70;2.10;;;6.20;96.60;;;;;;5141394;27;37292;-56
2021/12/08 09:18:21;;;;;;;9.57;2.03;;;6.10;96.60;;;;;;5139694;27;38525;-56
2021/12/08 09:20:56;;;;;;;9.65;1.95;;;6.00;96.60;;;;;;5140989;27;36588;-56
2021/12/08 09:23:29;;;;;;;8.50;1.98;;;6.00;96.80;;;;;;5140469;27;38300;-56
2021/12/08 09:25:59;;;;;;;8.32;2.38;;;6.00;97.10;;;;;;5139650;27;37401;-56
2021/12/08 09:28:31;;;;;;;9.50;2.00;;;5.90;96.90;;;;;;5138629;27;38012;-56
2021/12/08 09:31:04;;;;;;;10.80;2.40;;;5.90;97.00;;;;;;5140460;27;38188;-56
2021/12/08 09:33:39;;;;;;;10.73;2.60;;;5.90;96.90;;;;;;5140701;27;36366;-56
2021/12/08 09:36:12;;;;;;;10.05;2.42;;;5.90;96.90;;;;;;5140278;27;37394;-56
2021/12/08 09:38:43;;;;;;;10.88;2.28;;;5.90;96.60;;;;;;5139066;27;38280;-56
2021/12/08 09:41:14;;;;;;;13.23;2.30;;;5.90;96.60;;;;;;5139989;27;37740;-56
2021/12/08 09:43:46;;;;;;;10.65;2.08;;;5.90;96.60;;;;;;5136335;27;37978;-56
2021/12/08 09:46:18;;;;;;;10.00;2.65;;;6.00;96.50;;;;;;5140104;27;38131;-56
2021/12/08 09:48:48;;;;;;;11.43;2.53;;;6.00;96.50;;;;;;5139149;27;37846;-56
2021/12/08 09:51:17;;;;;;;7.90;2.28;;;6.10;96.40;;;;;;5134153;27;38369;-56
2021/12/08 09:53:46;;;;;;;13.30;1.98;;;6.10;96.30;;;;;;5138782;27;37517;-56
2021/12/08 09:56:15;;;;;;;8.52;2.05;;;6.40;96.30;;;;;;5143236;27;36544;-56
2021/12/08 09:58:44;;;;;;;11.55;2.25;;;6.60;96.10;;;;;;5143997;27;38136;-57
2021/12/08 10:01:16;;;;;;;7.28;2.10;;;6.80;95.80;;;;;;5143656;27;37310;-55
2021/12/08 10:03:44;;;;;;;8.13;1.98;;;7.00;95.40;;;;;;5144266;27;37222;-56
2021/12/08 10:06:13;;;;;;;9.52;2.00;;;7.00;94.90;;;;;;5143838;27;36053;-56
2021/12/08 10:08:42;;;;;;;10.27;1.92;;;7.00;95.00;;;;;;5143061;27;37122;-56
2021/12/08 10:11:10;;;;;;;7.00;2.00;;;7.10;94.70;;;;;;5145972;27;36789;-56
2021/12/08 10:13:38;;;;;;;6.38;2.22;;;7.10;94.40;;;;;;5142774;27;37169;-57
2021/12/08 10:16:08;;;;;;;12.63;2.30;;;7.20;94.90;;;;;;5141561;27;35913;-56
2021/12/08 10:18:36;;;;;;;9.35;2.00;;;7.20;93.50;;;;;;5142866;27;37526;-57
2021/12/08 10:21:04;;;;;;;9.95;2.30;;;7.30;94.30;;;;;;5145020;27;36508;-56
2021/12/08 10:23:35;;;;;;;7.60;1.88;;;7.40;93.50;;;;;;5143819;27;38822;-57
2021/12/08 10:26:05;;;;;;;11.10;2.33;;;7.30;93.30;;;;;;5143901;27;36420;-56
2021/12/08 10:28:36;;;;;;;10.27;2.53;;;7.30;93.60;;;;;;5142842;27;37621;-56
2021/12/08 10:31:08;;;;;;;11.73;2.13;;;7.30;93.10;;;;;;5144878;27;37542;-56
2021/12/08 10:33:50;;;;;;;8.05;1.88;;;7.40;93.50;;;;;;5143172;27;38573;-56
2021/12/08 10:39:09;;;;;;;11.02;3.03;;;7.20;92.70;;;;;;5130337;27;37496;-57
2021/12/08 10:41:48;;;;;;;12.88;1.88;;;7.30;93.20;;;;;;5143520;27;37585;-57
2021/12/08 10:44:22;;;;;;;7.13;1.80;;;7.30;92.90;;;;;;5143792;27;38787;-57
2021/12/08 10:46:56;;;;;;;12.25;2.22;;;7.20;92.80;;;;;;5143778;27;37089;-57
2021/12/08 10:54:23;;;;;;;8.13;2.00;;;7.20;93.00;;;;;;5142995;27;36360;-56
2021/12/08 10:54:58;;;;;;;11.18;1.95;;;7.20;92.10;;;;;;5143034;27;39807;-57
2021/12/08 10:57:29;;;;;;;6.40;1.90;;;7.20;92.60;;;;;;5142780;27;36966;-57
2021/12/08 11:00:05;;;;;;;12.68;2.40;;;7.20;92.40;;;;;;5140274;27;36458;-57
2021/12/08 11:02:48;;;;;;;9.52;1.65;;;7.20;92.60;;;;;;5142065;27;38721;-57
2021/12/08 11:05:48;;;;;;;8.93;3.22;;;7.20;92.40;;;;;;5142397;27;38337;-57
2021/12/08 11:08:22;;;;;;;10.68;2.33;;;7.20;92.00;;;;;;5142373;27;36893;-57
2021/12/08 11:10:52;;;;;;;13.05;1.73;;;7.30;92.50;;;;;;5143412;27;37518;-57
2021/12/08 11:13:22;;;;;;;9.40;1.80;;;7.40;92.70;;;;;;5143441;27;38272;-57
2021/12/08 11:16:00;;;;;;;7.53;2.00;;;7.40;92.50;;;;;;5141703;27;37955;-57
2021/12/08 11:18:30;;;;;;;9.23;1.92;;;7.40;92.30;;;;;;5143154;27;38986;-57
2021/12/08 11:21:00;;;;;;;11.20;1.88;;;7.50;92.60;;;;;;5142221;27;38234;-57
2021/12/08 11:26:21;;;;;;;11.13;2.72;;;7.50;92.00;;;;;;5139744;27;39947;-57
2021/12/08 11:28:57;;;;;;;9.77;1.92;;;7.50;91.70;;;;;;5141710;27;36384;-57
2021/12/08 11:31:27;;;;;;;10.13;1.77;;;7.50;91.40;;;;;;5142433;27;39218;-57
2021/12/08 11:34:00;;;;;;;8.38;1.67;;;7.50;91.80;;;;;;5143097;27;37841;-57
2021/12/08 11:36:30;;;;;;;9.77;2.00;;;7.40;91.90;;;;;;5142553;27;37970;-58
2021/12/08 11:38:57;;;;;;;7.60;1.83;;;7.30;91.80;;;;;;5142701;27;38340;-57
2021/12/08 11:41:36;;;;;;;10.40;2.03;;;7.30;92.20;;;;;;5140811;27;36344;-57
2021/12/08 11:44:07;;;;;;;9.82;1.92;;;7.30;91.70;;;;;;5141821;27;37825;-57
2021/12/08 11:46:40;;;;;;;9.02;1.90;;;7.30;91.60;;;;;;5139748;27;38383;-57
2021/12/08 11:49:10;;;;;;;8.80;1.95;;;7.20;91.80;;;;;;5141522;27;35300;-57
2021/12/08 11:52:00;;;;;;;7.65;1.60;;;7.10;91.80;;;;;;5139390;27;36787;-57
2021/12/08 11:54:40;;;;;;;11.75;1.70;;;7.10;91.70;;;;;;5140421;27;37640;-57
2021/12/08 11:57:11;;;;;;;8.50;1.75;;;7.10;92.10;;;;;;5140535;27;37390;-57
2021/12/08 11:59:59;;;;;;;9.13;1.75;;;7.20;92.30;;;;;;5138883;27;35351;-57
2021/12/08 12:02:30;;;;;;;8.30;2.17;;;7.00;92.20;;;;;;5130053;27;40218;-57
2021/12/08 12:05:00;;;;;;;7.07;1.58;;;7.00;92.40;;;;;;5139178;27;39849;-57
2021/12/08 12:07:28;;;;;;;11.95;2.20;;;7.00;92.30;;;;;;5140505;27;35746;-57
2021/12/08 12:09:56;;;;;;;8.65;1.85;;;7.00;92.40;;;;;;5139913;27;36531;-57
2021/12/08 12:12:23;;;;;;;12.93;2.38;;;7.00;92.40;;;;;;5140720;27;37679;-57
2021/12/08 12:14:51;;;;;;;8.95;1.90;;;7.00;92.30;;;;;;5141300;27;37608;-57
2021/12/08 12:17:18;;;;;;;7.15;1.95;;;6.90;92.30;;;;;;5142436;27;36115;-57
2021/12/08 12:19:52;;;;;;;8.02;1.80;;;6.90;92.40;;;;;;5137379;27;36477;-57
2021/12/08 12:22:33;;;;;;;10.63;1.92;;;6.90;92.60;;;;;;5139567;27;38605;-57
2021/12/08 12:25:17;;;;;;;7.63;1.70;;;6.90;92.70;;;;;;5140685;27;38589;-57
2021/12/08 12:27:48;;;;;;;;;;;7.00;92.40;;;;;;5141360;27;37164;-57
2021/12/08 12:30:26;;;;;;;10.43;2.20;;;6.90;91.80;;;;;;5141093;27;36981;-57
2021/12/08 12:32:55;;;;;;;11.02;2.33;;;7.00;92.90;;;;;;5139456;27;38511;-57
2021/12/08 12:35:24;;;;;;;13.88;2.03;;;7.00;92.60;;;;;;5138937;27;37789;-57
2021/12/08 12:38:02;;;;;;;8.20;1.98;;;7.00;92.60;;;;;;5138544;27;38885;-57
2021/12/08 12:40:35;;;;;;;13.85;3.28;;;7.00;92.50;;;;;;5138688;27;35311;-57
2021/12/08 12:43:04;;;;;;;9.05;1.95;;;7.00;92.60;;;;;;5139652;27;37941;-57
2021/12/08 12:45:37;;;;;;;7.35;1.77;;;7.00;92.80;;;;;;5140199;27;37709;-57
2021/12/08 12:48:16;;;;;;;7.95;2.00;;;7.00;92.40;;;;;;5141987;27;38070;-57
2021/12/08 12:50:55;;;;;;;9.07;2.30;;;7.00;92.70;;;;;;5141011;27;36497;-56
2021/12/08 12:53:50;;;;;;;9.23;2.10;;;7.00;92.70;;;;;;5140298;27;37545;-57
2021/12/08 12:56:18;;;;;;;;;;;7.00;92.50;;;;;;5119879;27;38733;-57
2021/12/08 12:58:48;;;;;;;7.88;1.95;;;7.00;91.40;;;;;;5139214;27;37955;-56
2021/12/08 13:01:18;;;;;;;8.15;2.20;;;7.00;92.20;;;;;;5141644;27;35471;-56
2021/12/08 13:03:54;;;;;;;5.72;2.30;;;6.90;92.30;;;;;;5141281;27;37591;-56
2021/12/08 13:06:42;;;;;;;10.82;2.58;;;7.00;92.30;;;;;;5141107;27;37537;-57
2021/12/08 13:09:38;;;;;;;10.55;2.22;;;6.90;91.70;;;;;;5140075;27;38188;-56
2021/12/08 13:12:10;;;;;;;10.98;2.38;;;6.90;92.10;;;;;;5140351;27;36547;-57
2021/12/08 13:14:38;;;;;;;8.90;2.38;;;6.90;92.00;;;;;;5141476;27;37841;-57
2021/12/08 13:17:15;;;;;;;10.13;2.83;;;6.90;92.00;;;;;;5139996;27;38406;-56
2021/12/08 13:19:45;;;;;;;7.88;2.30;;;6.90;92.30;;;;;;5142195;27;37568;-57
2021/12/08 13:22:51;;;;;;;8.38;2.25;;;6.90;92.40;;;;;;5140336;27;36071;-57
2021/12/08 13:25:45;;;;;;;12.85;2.85;;;6.80;92.00;;;;;;5137168;27;37452;-57
2021/12/08 13:28:31;;;;;;;10.60;2.10;;;6.90;92.00;;;;;;5140067;27;38036;-56
2021/12/08 13:31:07;;;;;;;7.30;2.70;;;6.90;92.10;;;;;;5138983;27;37284;-57
2021/12/08 13:33:37;;;;;;;6.93;2.40;;;6.90;91.90;;;;;;5141394;27;36923;-57
2021/12/08 13:36:32;;;;;;;6.22;2.28;;;6.80;92.10;;;;;;5139885;27;37516;-57
2021/12/08 13:39:22;;;;;;;7.00;2.08;;;6.80;92.00;;;;;;5139520;27;37597;-57
2021/12/08 13:42:03;;;;;;;5.53;1.85;;;6.80;92.20;;;;;;5136141;27;37420;-57
2021/12/08 13:44:35;;;;;;;8.02;2.70;;;6.90;91.70;;;;;;5141494;27;35796;-57
2021/12/08 13:47:06;;;;;;;10.02;2.10;;;6.90;91.90;;;;;;5141147;27;40618;-56